createdAt,value
2023-06-27T00:00:14.206Z,234.37
2023-06-27T00:01:14.125Z,233.00
2023-06-27T00:02:14.264Z,234.76
2023-06-27T00:03:14.243Z,233.53
2023-06-27T00:04:14.122Z,233.54
2023-06-27T00:05:14.118Z,235.46
2023-06-27T00:06:14.060Z,233.00
2023-06-27T00:07:14.250Z,232.56
2023-06-27T00:08:14.094Z,235.32
2023-06-27T00:09:14.133Z,231.97
2023-06-27T00:10:14.190Z,232.44
2023-06-27T00:11:14.198Z,232.39
2023-06-27T00:12:14.248Z,230.66
2023-06-27T00:13:14.295Z,231.84
2023-06-27T00:14:14.376Z,232.56
2023-06-27T00:15:14.391Z,237.29
2023-06-27T00:16:14.454Z,234.18
2023-06-27T00:17:14.495Z,233.35
2023-06-27T00:18:14.553Z,232.47
2023-06-27T00:19:14.578Z,235.04
2023-06-27T00:20:14.628Z,233.85
2023-06-27T00:21:14.671Z,232.57
2023-06-27T00:22:14.723Z,233.25
2023-06-27T00:23:14.794Z,234.51
2023-06-27T00:24:14.852Z,234.60
2023-06-27T00:25:14.907Z,231.92
2023-06-27T00:26:14.925Z,235.15
2023-06-27T00:27:14.976Z,234.49
2023-06-27T00:28:15.030Z,235.11
2023-06-27T00:29:15.149Z,236.35
2023-06-27T00:30:15.108Z,235.58
2023-06-27T00:31:15.181Z,231.84
2023-06-27T00:32:15.263Z,235.46
2023-06-27T00:33:15.238Z,235.40
2023-06-27T00:34:15.280Z,236.43
2023-06-27T00:35:15.334Z,234.68
2023-06-27T00:36:15.385Z,235.65
2023-06-27T00:37:15.461Z,236.38
2023-06-27T00:38:15.452Z,234.63
2023-06-27T00:39:15.526Z,235.50
2023-06-27T00:40:15.585Z,234.68
2023-06-27T00:41:15.606Z,236.39
2023-06-27T00:42:15.689Z,233.88
2023-06-27T00:43:15.689Z,236.15
2023-06-27T00:44:15.761Z,234.81
2023-06-27T00:45:15.815Z,235.98
2023-06-27T00:46:15.864Z,234.62
2023-06-27T00:47:15.925Z,236.00
2023-06-27T00:48:15.986Z,236.52
2023-06-27T00:49:16.056Z,235.74
2023-06-27T00:50:16.053Z,237.13
2023-06-27T00:51:16.097Z,235.50
2023-06-27T00:52:16.197Z,237.45
2023-06-27T00:53:16.242Z,236.49
2023-06-27T00:54:16.287Z,236.12
2023-06-27T00:55:16.343Z,236.58
2023-06-27T00:56:16.343Z,236.69
2023-06-27T00:57:16.390Z,236.37
2023-06-27T00:58:16.524Z,239.27
2023-06-27T00:59:16.528Z,234.90
2023-06-27T01:00:16.583Z,232.66
2023-06-27T01:01:16.637Z,237.22
2023-06-27T01:02:16.707Z,235.42
2023-06-27T01:03:16.826Z,236.44
2023-06-27T01:04:16.740Z,237.86
2023-06-27T01:05:16.825Z,237.02
2023-06-27T01:06:16.872Z,236.25
2023-06-27T01:07:17.014Z,235.79
2023-06-27T01:08:17.096Z,237.83
2023-06-27T01:09:17.071Z,236.66
2023-06-27T01:10:17.124Z,237.72
2023-06-27T01:11:17.175Z,238.35
2023-06-27T01:12:17.207Z,238.93
2023-06-27T01:13:17.280Z,235.76
2023-06-27T01:14:17.357Z,234.46
2023-06-27T01:15:17.386Z,236.66
2023-06-27T01:16:17.458Z,239.41
2023-06-27T01:17:17.772Z,237.31
2023-06-27T01:18:17.553Z,237.11
2023-06-27T01:19:17.630Z,239.36
2023-06-27T01:20:17.703Z,234.98
2023-06-27T01:21:17.784Z,239.44
2023-06-27T01:22:17.787Z,237.51
2023-06-27T01:23:17.837Z,239.31
2023-06-27T01:24:17.875Z,237.03
2023-06-27T01:25:17.929Z,239.73
2023-06-27T01:26:17.983Z,239.83
2023-06-27T01:27:18.042Z,238.58
2023-06-27T01:28:18.112Z,240.98
2023-06-27T01:29:18.167Z,239.10
2023-06-27T01:30:18.218Z,239.31
2023-06-27T01:31:18.306Z,238.62
2023-06-27T01:32:18.334Z,238.66
2023-06-27T01:33:18.365Z,236.70
2023-06-27T01:34:18.464Z,237.72
2023-06-27T01:35:18.528Z,239.77
2023-06-27T01:36:18.579Z,240.25
2023-06-27T01:37:18.640Z,239.22
2023-06-27T01:38:18.701Z,239.05
2023-06-27T01:39:18.726Z,238.45
2023-06-27T01:40:18.805Z,240.01
2023-06-27T01:41:18.890Z,239.32
2023-06-27T01:42:18.903Z,237.25
2023-06-27T01:43:18.962Z,241.36
2023-06-27T01:44:19.055Z,240.25
2023-06-27T01:45:19.104Z,239.15
2023-06-27T01:46:19.168Z,238.44
2023-06-27T01:47:19.243Z,239.29
2023-06-27T01:48:19.274Z,239.02
2023-06-27T01:49:19.306Z,232.79
2023-06-27T01:50:19.361Z,240.99
2023-06-27T01:51:19.426Z,241.45
2023-06-27T01:52:19.501Z,242.43
2023-06-27T01:53:19.567Z,240.24
2023-06-27T01:54:19.601Z,241.83
2023-06-27T01:55:19.704Z,242.57
2023-06-27T01:56:19.705Z,241.74
2023-06-27T01:57:19.809Z,239.70
2023-06-27T01:58:19.805Z,244.53
2023-06-27T01:59:19.886Z,240.10
2023-06-27T02:00:19.968Z,240.25
2023-06-27T02:01:19.981Z,242.45
2023-06-27T02:02:20.117Z,240.83
2023-06-27T02:03:20.156Z,240.52
2023-06-27T02:04:20.393Z,240.04
2023-06-27T02:05:20.248Z,240.40
2023-06-27T02:06:20.267Z,241.38
2023-06-27T02:07:20.393Z,239.97
2023-06-27T02:08:20.393Z,243.37
2023-06-27T02:09:20.418Z,240.05
2023-06-27T02:10:20.527Z,240.75
2023-06-27T02:11:20.581Z,241.71
2023-06-27T02:12:20.664Z,240.71
2023-06-27T02:13:20.697Z,244.20
2023-06-27T02:14:20.760Z,245.23
2023-06-27T02:15:20.797Z,242.14
2023-06-27T02:16:20.870Z,243.16
2023-06-27T02:17:21.006Z,244.87
2023-06-27T02:18:21.055Z,241.30
2023-06-27T02:19:21.069Z,243.14
2023-06-27T02:20:21.112Z,242.14
2023-06-27T02:21:21.160Z,245.80
2023-06-27T02:22:21.215Z,242.38
2023-06-27T02:23:21.274Z,244.12
2023-06-27T02:24:21.339Z,245.66
2023-06-27T02:25:21.388Z,245.69
2023-06-27T02:26:21.528Z,246.00
2023-06-27T02:27:21.511Z,246.43
2023-06-27T02:28:21.574Z,242.88
2023-06-27T02:29:21.618Z,243.20
2023-06-27T02:30:21.682Z,245.05
2023-06-27T02:31:21.848Z,243.63
2023-06-27T02:32:21.860Z,243.16
2023-06-27T02:33:21.866Z,242.54
2023-06-27T02:34:21.923Z,245.04
2023-06-27T02:35:21.970Z,244.27
2023-06-27T02:36:22.039Z,242.91
2023-06-27T02:37:22.150Z,247.42
2023-06-27T02:38:22.206Z,242.64
2023-06-27T02:39:22.248Z,245.91
2023-06-27T02:40:22.269Z,245.37
2023-06-27T02:41:22.425Z,246.28
2023-06-27T02:42:22.425Z,242.79
2023-06-27T02:43:22.484Z,245.28
2023-06-27T02:44:22.524Z,247.90
2023-06-27T02:45:22.617Z,244.57
2023-06-27T02:46:22.702Z,245.40
2023-06-27T02:47:22.864Z,245.00
2023-06-27T02:48:22.779Z,246.80
2023-06-27T02:49:22.828Z,243.95
2023-06-27T02:50:22.897Z,246.00
2023-06-27T02:51:22.963Z,247.99
2023-06-27T02:52:23.002Z,247.53
2023-06-27T02:53:23.076Z,246.19
2023-06-27T02:54:23.117Z,246.26
2023-06-27T02:55:23.181Z,243.77
2023-06-27T02:56:23.243Z,243.59
2023-06-27T02:57:23.296Z,241.53
2023-06-27T02:58:23.348Z,242.74
2023-06-27T02:59:23.419Z,243.33
2023-06-27T03:00:23.476Z,244.75
2023-06-27T03:01:23.603Z,244.68
2023-06-27T03:02:23.626Z,244.50
2023-06-27T03:03:23.774Z,245.54
2023-06-27T03:04:23.798Z,247.54
2023-06-27T03:05:23.787Z,243.48
2023-06-27T03:06:23.869Z,246.60
2023-06-27T03:07:23.892Z,247.31
2023-06-27T03:08:23.989Z,247.89
2023-06-27T03:09:24.051Z,244.65
2023-06-27T03:10:24.099Z,246.31
2023-06-27T03:11:24.145Z,244.84
2023-06-27T03:12:24.216Z,244.12
2023-06-27T03:13:24.280Z,244.45
2023-06-27T03:14:24.348Z,245.04
2023-06-27T03:15:24.395Z,244.87
2023-06-27T03:16:24.467Z,244.19
2023-06-27T03:17:24.574Z,247.65
2023-06-27T03:18:24.568Z,244.51
2023-06-27T03:19:34.569Z,245.32
2023-06-27T03:20:25.663Z,245.52
2023-06-27T03:21:24.628Z,245.85
2023-06-27T03:22:24.635Z,246.14
2023-06-27T03:23:24.612Z,247.45
2023-06-27T03:24:24.611Z,248.25
2023-06-27T03:25:24.617Z,247.24
2023-06-27T03:26:24.575Z,245.40
2023-06-27T03:27:24.627Z,246.69
2023-06-27T03:28:24.733Z,246.05
2023-06-27T03:29:24.793Z,248.80
2023-06-27T03:30:24.853Z,247.02
2023-06-27T03:31:24.948Z,244.02
2023-06-27T03:32:25.005Z,246.31
2023-06-27T03:33:25.016Z,244.92
2023-06-27T03:34:25.132Z,247.75
2023-06-27T03:35:25.150Z,247.04
2023-06-27T03:36:25.244Z,248.13
2023-06-27T03:37:25.314Z,243.33
2023-06-27T03:38:25.351Z,246.09
2023-06-27T03:39:25.385Z,244.24
2023-06-27T03:40:25.484Z,247.57
2023-06-27T03:41:25.542Z,244.17
2023-06-27T03:42:25.593Z,247.00
2023-06-27T03:43:25.665Z,244.60
2023-06-27T03:44:25.778Z,241.82
2023-06-27T03:45:25.778Z,246.26
2023-06-27T03:46:25.833Z,245.41
2023-06-27T03:47:25.937Z,244.36
2023-06-27T03:48:25.952Z,246.12
2023-06-27T03:49:26.049Z,242.93
2023-06-27T03:50:26.118Z,246.93
2023-06-27T03:51:26.157Z,246.21
2023-06-27T03:52:26.231Z,244.87
2023-06-27T03:53:26.289Z,243.34
2023-06-27T03:54:26.350Z,249.29
2023-06-27T03:55:26.402Z,244.03
2023-06-27T03:56:26.466Z,246.66
2023-06-27T03:57:26.656Z,242.87
2023-06-27T03:58:26.677Z,247.30
2023-06-27T03:59:26.626Z,244.58
2023-06-27T04:00:26.706Z,245.73
2023-06-27T04:01:26.752Z,245.55
2023-06-27T04:02:26.879Z,246.63
2023-06-27T04:03:26.913Z,246.30
2023-06-27T04:04:27.064Z,242.10
2023-06-27T04:05:26.993Z,240.73
2023-06-27T04:06:27.055Z,225.46
2023-06-27T04:07:27.289Z,222.91
2023-06-27T04:08:27.168Z,219.03
2023-06-27T04:09:27.210Z,209.67
2023-06-27T04:10:27.318Z,201.92
2023-06-27T04:11:27.395Z,194.09
2023-06-27T04:12:27.452Z,184.28
2023-06-27T04:13:27.568Z,178.99
2023-06-27T04:14:28.034Z,174.46
2023-06-27T04:15:27.660Z,164.73
2023-06-27T04:16:27.729Z,151.79
2023-06-27T04:17:27.970Z,138.28
2023-06-27T04:18:27.848Z,136.45
2023-06-27T04:19:27.855Z,133.17
2023-06-27T04:20:27.897Z,119.97
2023-06-27T04:21:27.979Z,115.22
2023-06-27T04:22:27.984Z,118.04
2023-06-27T04:23:27.987Z,111.46
2023-06-27T04:24:28.041Z,103.73
2023-06-27T04:25:28.101Z,99.94
2023-06-27T04:26:28.100Z,93.49
2023-06-27T04:27:28.148Z,77.90
2023-06-27T04:28:28.216Z,72.55
2023-06-27T04:29:28.292Z,68.22
2023-06-27T04:30:28.277Z,63.21
2023-06-27T04:31:28.368Z,59.40
2023-06-27T04:32:28.482Z,53.47
2023-06-27T04:33:28.415Z,51.70
2023-06-27T04:34:28.469Z,50.42
2023-06-27T04:35:28.513Z,46.96
2023-06-27T04:36:28.604Z,54.41
2023-06-27T04:37:28.626Z,58.71
2023-06-27T04:38:28.708Z,65.43
2023-06-27T04:39:28.776Z,60.30
2023-06-27T04:40:28.819Z,66.37
2023-06-27T04:41:28.862Z,74.52
2023-06-27T04:42:28.947Z,76.66
2023-06-27T04:43:28.939Z,74.54
2023-06-27T04:44:28.988Z,77.86
2023-06-27T04:45:29.055Z,83.55
2023-06-27T04:46:29.106Z,83.56
2023-06-27T04:47:29.220Z,80.73
2023-06-27T04:48:29.211Z,84.52
2023-06-27T04:49:29.297Z,83.06
2023-06-27T04:50:29.297Z,87.22
2023-06-27T04:51:29.397Z,91.03
2023-06-27T04:52:29.446Z,92.39
2023-06-27T04:53:29.466Z,92.48
2023-06-27T04:54:29.596Z,95.34
2023-06-27T04:55:29.592Z,100.93
2023-06-27T04:56:29.651Z,106.80
2023-06-27T04:57:29.687Z,107.30
2023-06-27T04:58:29.750Z,109.94
2023-06-27T04:59:29.847Z,108.00
2023-06-27T05:00:29.890Z,113.46
2023-06-27T05:01:29.972Z,112.24
2023-06-27T05:02:30.049Z,112.12
2023-06-27T05:03:30.046Z,112.86
2023-06-27T05:04:30.126Z,113.33
2023-06-27T05:05:30.156Z,116.15
2023-06-27T05:06:30.212Z,114.67
2023-06-27T05:07:30.371Z,117.46
2023-06-27T05:08:30.337Z,119.60
2023-06-27T05:09:30.372Z,117.68
2023-06-27T05:10:30.416Z,118.19
2023-06-27T05:11:30.490Z,121.76
2023-06-27T05:12:30.603Z,123.35
2023-06-27T05:13:30.627Z,123.08
2023-06-27T05:14:30.691Z,127.72
2023-06-27T05:15:30.755Z,128.59
2023-06-27T05:16:30.766Z,123.95
2023-06-27T05:17:30.851Z,130.33
2023-06-27T05:18:30.927Z,124.59
2023-06-27T05:19:30.952Z,131.95
2023-06-27T05:20:30.963Z,128.14
2023-06-27T05:21:31.476Z,130.20
2023-06-27T05:22:31.085Z,127.49
2023-06-27T05:23:31.110Z,135.63
2023-06-27T05:24:31.191Z,135.03
2023-06-27T05:25:31.206Z,132.33
2023-06-27T05:26:31.280Z,135.68
2023-06-27T05:27:31.350Z,133.64
2023-06-27T05:28:31.328Z,135.60
2023-06-27T05:29:31.398Z,139.22
2023-06-27T05:30:31.483Z,138.91
2023-06-27T05:31:31.444Z,139.72
2023-06-27T05:32:31.540Z,135.73
2023-06-27T05:33:31.609Z,138.25
2023-06-27T05:34:31.647Z,138.23
2023-06-27T05:35:31.646Z,129.47
2023-06-27T05:36:31.624Z,102.77
2023-06-27T05:37:31.671Z,73.52
2023-06-27T05:38:31.591Z,47.23
2023-06-27T05:39:31.694Z,23.17
2023-06-27T05:40:31.793Z,6.63
2023-06-27T05:41:31.788Z,10.32
2023-06-27T05:42:31.754Z,25.11
2023-06-27T05:43:31.831Z,23.71
2023-06-27T05:44:31.922Z,25.00
2023-06-27T05:45:31.921Z,25.00
2023-06-27T05:46:31.962Z,25.07
2023-06-27T05:47:32.088Z,25.81
2023-06-27T05:48:32.102Z,25.32
2023-06-27T05:49:32.212Z,25.00
2023-06-27T05:50:32.167Z,27.44
2023-06-27T05:51:32.230Z,27.37
2023-06-27T05:52:32.276Z,32.02
2023-06-27T05:53:32.290Z,34.13
2023-06-27T05:54:32.308Z,39.78
2023-06-27T05:55:32.362Z,32.84
2023-06-27T05:56:32.416Z,37.58
2023-06-27T05:57:32.361Z,46.62
2023-06-27T05:58:32.422Z,50.62
2023-06-27T05:59:32.428Z,54.40
2023-06-27T06:00:32.421Z,55.58
2023-06-27T06:01:32.559Z,61.51
2023-06-27T06:02:32.782Z,60.70
2023-06-27T06:03:32.747Z,66.95
2023-06-27T06:04:32.813Z,68.40
2023-06-27T06:05:32.877Z,68.97
2023-06-27T06:06:32.988Z,73.50
2023-06-27T06:07:33.127Z,76.67
2023-06-27T06:08:33.145Z,78.68
2023-06-27T06:09:33.207Z,76.35
2023-06-27T06:10:33.257Z,83.68
2023-06-27T06:11:33.321Z,93.88
2023-06-27T06:12:33.441Z,94.61
2023-06-27T06:13:33.476Z,99.13
2023-06-27T06:14:33.490Z,94.77
2023-06-27T06:15:33.617Z,96.82
2023-06-27T06:16:33.622Z,98.19
2023-06-27T06:17:33.698Z,102.35
2023-06-27T06:18:33.852Z,108.27
2023-06-27T06:19:33.809Z,112.49
2023-06-27T06:20:33.914Z,111.01
2023-06-27T06:21:33.937Z,116.38
2023-06-27T06:22:33.967Z,116.32
2023-06-27T06:23:34.000Z,117.41
2023-06-27T06:24:34.293Z,123.88
2023-06-27T06:25:34.149Z,120.69
2023-06-27T06:26:34.182Z,115.60
2023-06-27T06:27:34.231Z,117.74
2023-06-27T06:28:34.298Z,126.02
2023-06-27T06:29:34.381Z,127.00
2023-06-27T06:30:34.375Z,123.01
2023-06-27T06:31:34.436Z,125.52
2023-06-27T06:32:35.951Z,130.46
2023-06-27T06:33:34.524Z,128.04
2023-06-27T06:34:34.607Z,126.99
2023-06-27T06:35:34.608Z,118.61
2023-06-27T06:36:34.657Z,117.12
2023-06-27T06:37:34.779Z,120.77
2023-06-27T06:38:34.803Z,125.75
2023-06-27T06:39:34.837Z,125.94
2023-06-27T06:40:34.832Z,133.02
2023-06-27T06:41:34.865Z,130.55
2023-06-27T06:42:34.892Z,145.11
2023-06-27T06:43:34.923Z,157.27
2023-06-27T06:44:35.008Z,156.14
2023-06-27T06:45:35.041Z,157.25
2023-06-27T06:46:35.175Z,163.54
2023-06-27T06:47:35.084Z,157.05
2023-06-27T06:48:35.149Z,154.98
2023-06-27T06:49:35.185Z,161.96
2023-06-27T06:50:35.224Z,154.78
2023-06-27T06:51:35.195Z,158.85
2023-06-27T06:52:35.259Z,162.24
2023-06-27T06:53:35.263Z,156.53
2023-06-27T06:54:35.292Z,158.40
2023-06-27T06:55:35.315Z,159.56
2023-06-27T06:56:35.396Z,150.26
2023-06-27T06:57:35.472Z,151.93
2023-06-27T06:58:35.436Z,160.45
2023-06-27T06:59:35.487Z,160.38
2023-06-27T07:00:35.553Z,158.27
2023-06-27T07:01:35.552Z,152.77
2023-06-27T07:02:35.568Z,151.50
2023-06-27T07:03:35.583Z,144.51
2023-06-27T07:04:35.616Z,149.65
2023-06-27T07:05:35.676Z,149.03
2023-06-27T07:06:35.681Z,152.88
2023-06-27T07:07:35.750Z,160.35
2023-06-27T07:08:35.830Z,161.25
2023-06-27T07:09:35.798Z,158.57
2023-06-27T07:10:35.817Z,154.39
2023-06-27T07:11:35.838Z,146.76
2023-06-27T07:12:35.872Z,153.74
2023-06-27T07:13:35.883Z,154.60
2023-06-27T07:14:35.899Z,158.45
2023-06-27T07:15:35.929Z,163.62
2023-06-27T07:16:35.952Z,159.54
2023-06-27T07:17:36.004Z,163.37
2023-06-27T07:18:35.975Z,158.95
2023-06-27T07:19:35.988Z,157.08
2023-06-27T07:20:36.002Z,155.94
2023-06-27T07:21:36.095Z,154.38
2023-06-27T07:22:36.058Z,160.27
2023-06-27T07:23:36.069Z,157.39
2023-06-27T07:24:36.143Z,158.09
2023-06-27T07:25:36.116Z,161.55
2023-06-27T07:26:36.107Z,152.29
2023-06-27T07:27:36.119Z,150.65
2023-06-27T07:28:36.146Z,148.17
2023-06-27T07:29:36.095Z,160.41
2023-06-27T07:30:36.165Z,155.93
2023-06-27T07:31:36.209Z,160.51
2023-06-27T07:32:36.256Z,149.11
2023-06-27T07:33:36.164Z,153.87
2023-06-27T07:34:36.163Z,150.78
2023-06-27T07:35:36.190Z,165.62
2023-06-27T07:36:36.187Z,154.49
2023-06-27T07:37:36.205Z,159.19
2023-06-27T07:38:36.254Z,162.76
2023-06-27T07:39:36.226Z,180.72
2023-06-27T07:40:36.280Z,163.23
2023-06-27T07:41:36.233Z,158.95
2023-06-27T07:42:36.344Z,157.85
2023-06-27T07:43:36.250Z,166.79
2023-06-27T07:44:36.272Z,165.06
2023-06-27T07:45:36.256Z,171.30
2023-06-27T07:46:36.279Z,169.67
2023-06-27T07:47:36.266Z,167.91
2023-06-27T07:48:36.263Z,169.95
2023-06-27T07:49:36.253Z,166.57
2023-06-27T07:50:36.312Z,163.12
2023-06-27T07:51:36.202Z,163.81
2023-06-27T07:52:36.404Z,168.36
2023-06-27T07:53:36.261Z,159.10
2023-06-27T07:54:36.238Z,162.43
2023-06-27T07:55:36.275Z,160.77
2023-06-27T07:56:36.306Z,159.85
2023-06-27T07:57:36.321Z,162.05
2023-06-27T07:58:36.344Z,153.29
2023-06-27T07:59:36.413Z,161.11
2023-06-27T08:00:36.430Z,175.69
2023-06-27T08:01:36.481Z,163.99
2023-06-27T08:02:36.534Z,164.04
2023-06-27T08:03:36.587Z,170.37
2023-06-27T08:04:36.490Z,172.55
2023-06-27T08:05:36.551Z,174.75
2023-06-27T08:06:36.622Z,167.27
2023-06-27T08:07:36.715Z,165.20
2023-06-27T08:08:36.725Z,163.01
2023-06-27T08:09:37.189Z,163.01
2023-06-27T08:10:36.870Z,166.80
2023-06-27T08:11:36.946Z,169.36
2023-06-27T08:12:37.025Z,174.59
2023-06-27T08:13:37.037Z,168.64
2023-06-27T08:14:37.135Z,173.43
2023-06-27T08:15:37.180Z,171.42
2023-06-27T08:16:37.226Z,162.91
2023-06-27T08:17:37.278Z,153.06
2023-06-27T08:18:37.379Z,155.01
2023-06-27T08:19:37.386Z,156.49
2023-06-27T08:20:37.690Z,161.37
2023-06-27T08:21:37.477Z,164.66
2023-06-27T08:22:37.551Z,170.25
2023-06-27T08:23:37.638Z,176.57
2023-06-27T08:24:37.660Z,182.88
2023-06-27T08:25:37.932Z,184.90
2023-06-27T08:26:37.779Z,184.07
2023-06-27T08:27:37.783Z,169.34
2023-06-27T08:28:37.857Z,146.07
2023-06-27T08:29:37.855Z,128.66
2023-06-27T08:30:37.999Z,105.96
2023-06-27T08:31:37.905Z,80.69
2023-06-27T08:32:37.944Z,64.98
2023-06-27T08:33:37.920Z,36.83
2023-06-27T08:34:38.004Z,22.54
2023-06-27T08:35:38.048Z,23.10
2023-06-27T08:36:38.044Z,27.54
2023-06-27T08:37:38.124Z,24.04
2023-06-27T08:38:38.227Z,24.77
2023-06-27T08:39:38.236Z,25.97
2023-06-27T08:40:38.928Z,30.23
2023-06-27T08:41:38.366Z,24.86
2023-06-27T08:42:38.353Z,25.09
2023-06-27T08:43:38.360Z,25.24
2023-06-27T08:44:38.385Z,27.45
2023-06-27T08:45:38.374Z,25.86
2023-06-27T08:46:38.430Z,32.13
2023-06-27T08:47:38.596Z,41.38
2023-06-27T08:48:38.525Z,49.53
2023-06-27T08:49:38.543Z,51.52
2023-06-27T08:50:38.789Z,64.58
2023-06-27T08:51:39.205Z,72.59
2023-06-27T08:52:38.741Z,86.51
2023-06-27T08:53:38.731Z,92.54
2023-06-27T08:54:38.770Z,103.04
2023-06-27T08:55:39.267Z,110.97
2023-06-27T08:56:38.856Z,110.27
2023-06-27T08:57:38.911Z,114.92
2023-06-27T08:58:38.931Z,124.88
2023-06-27T08:59:39.021Z,127.14
2023-06-27T09:00:39.190Z,131.03
2023-06-27T09:01:39.081Z,143.83
2023-06-27T09:02:39.171Z,148.43
2023-06-27T09:03:39.167Z,146.51
2023-06-27T09:04:39.113Z,153.44
2023-06-27T09:05:40.463Z,151.01
2023-06-27T09:06:39.486Z,154.73
2023-06-27T09:07:39.111Z,153.75
2023-06-27T09:08:39.160Z,164.79
2023-06-27T09:09:39.140Z,174.23
2023-06-27T09:10:39.408Z,183.27
2023-06-27T09:11:39.179Z,192.51
2023-06-27T09:12:39.162Z,204.35
2023-06-27T09:13:39.199Z,203.30
2023-06-27T09:14:39.179Z,206.64
2023-06-27T09:15:39.413Z,206.08
2023-06-27T09:16:39.667Z,215.94
2023-06-27T09:17:39.272Z,212.63
2023-06-27T09:18:39.441Z,213.83
2023-06-27T09:19:39.338Z,223.79
2023-06-27T09:20:39.503Z,222.96
2023-06-27T09:21:39.423Z,225.45
2023-06-27T09:22:40.806Z,224.46
2023-06-27T09:23:39.460Z,229.75
2023-06-27T09:24:39.458Z,231.03
2023-06-27T09:25:39.650Z,232.24
2023-06-27T09:26:39.408Z,238.98
2023-06-27T09:27:39.421Z,240.72
2023-06-27T09:28:39.373Z,235.72
2023-06-27T09:29:40.887Z,240.88
2023-06-27T09:30:39.512Z,239.60
2023-06-27T09:31:39.509Z,212.97
2023-06-27T09:32:42.015Z,191.56
2023-06-27T09:33:43.025Z,165.69
2023-06-27T09:34:39.629Z,148.26
2023-06-27T09:36:00.317Z,142.26
2023-06-27T09:39:39.595Z,110.45
2023-06-27T09:40:39.568Z,117.13
2023-06-27T09:41:39.564Z,122.57
2023-06-27T09:42:39.571Z,132.90
2023-06-27T09:43:39.992Z,148.80
2023-06-27T09:44:39.619Z,157.57
2023-06-27T09:45:39.821Z,149.05
2023-06-27T09:46:39.523Z,160.51
2023-06-27T09:47:39.602Z,167.88
2023-06-27T09:48:39.515Z,165.85
2023-06-27T09:49:39.513Z,157.08
2023-06-27T09:50:39.523Z,163.74
2023-06-27T09:51:39.526Z,161.35
2023-06-27T09:52:39.558Z,158.69
2023-06-27T09:53:39.481Z,174.49
2023-06-27T09:54:39.507Z,182.18
2023-06-27T09:55:39.674Z,183.53
2023-06-27T09:56:39.497Z,190.61
2023-06-27T09:57:39.467Z,195.19
2023-06-27T09:58:39.473Z,183.39
2023-06-27T09:59:39.490Z,189.56
2023-06-27T10:00:39.450Z,200.92
2023-06-27T10:01:39.424Z,190.64
2023-06-27T10:02:39.486Z,200.37
2023-06-27T10:03:39.776Z,205.59
2023-06-27T10:04:40.751Z,202.36
2023-06-27T10:06:40.564Z,205.99
2023-06-27T10:07:39.547Z,206.64
2023-06-27T10:08:39.403Z,209.10
2023-06-27T10:09:39.383Z,216.70
2023-06-27T10:10:39.399Z,229.68
2023-06-27T10:11:39.413Z,233.43
2023-06-27T10:12:39.352Z,236.86
2023-06-27T10:13:39.393Z,245.23
2023-06-27T10:14:39.381Z,249.02
2023-06-27T10:15:39.502Z,249.16
2023-06-27T10:16:39.340Z,246.72
2023-06-27T10:17:39.395Z,250.00
2023-06-27T10:18:39.301Z,246.91
2023-06-27T10:19:39.334Z,247.16
2023-06-27T10:20:39.314Z,246.86
2023-06-27T10:21:39.302Z,248.11
2023-06-27T10:22:39.329Z,246.98
2023-06-27T10:23:39.276Z,249.24
2023-06-27T10:24:41.574Z,244.04
2023-06-27T10:25:39.355Z,245.45
2023-06-27T10:26:39.327Z,249.33
2023-06-27T10:27:39.256Z,245.48
2023-06-27T10:28:39.265Z,250.00
2023-06-27T10:29:39.523Z,247.44
2023-06-27T10:30:39.369Z,250.00
2023-06-27T10:31:39.216Z,250.63
2023-06-27T10:32:39.276Z,242.00
2023-06-27T10:33:39.222Z,242.80
2023-06-27T10:34:39.249Z,241.73
2023-06-27T10:35:39.195Z,235.59
2023-06-27T10:36:39.203Z,233.15
2023-06-27T10:37:39.218Z,245.53
2023-06-27T10:38:39.233Z,243.96
2023-06-27T10:39:39.182Z,246.46
2023-06-27T10:40:39.176Z,249.23
2023-06-27T10:41:39.282Z,242.96
2023-06-27T10:42:39.145Z,237.93
2023-06-27T10:43:39.154Z,244.03
2023-06-27T10:44:39.182Z,243.85
2023-06-27T10:45:39.605Z,246.82
2023-06-27T10:46:39.189Z,246.53
2023-06-27T10:47:39.132Z,245.27
2023-06-27T10:48:39.124Z,244.94
2023-06-27T10:49:39.098Z,236.19
2023-06-27T10:50:39.162Z,237.51
2023-06-27T10:51:39.114Z,243.94
2023-06-27T10:52:39.112Z,250.00
2023-06-27T10:53:39.115Z,246.29
2023-06-27T10:54:39.126Z,247.81
2023-06-27T10:55:39.076Z,245.73
2023-06-27T10:56:39.088Z,245.57
2023-06-27T10:57:39.077Z,239.28
2023-06-27T10:58:39.040Z,244.82
2023-06-27T10:59:39.054Z,241.64
2023-06-27T11:00:39.073Z,236.54
2023-06-27T11:01:39.097Z,227.89
2023-06-27T11:02:39.138Z,223.38
2023-06-27T11:03:39.237Z,223.61
2023-06-27T11:04:39.167Z,218.18
2023-06-27T11:05:39.038Z,229.59
2023-06-27T11:06:38.997Z,228.80
2023-06-27T11:07:39.019Z,232.29
2023-06-27T11:08:39.019Z,234.20
2023-06-27T11:09:39.050Z,228.11
2023-06-27T11:10:39.025Z,228.68
2023-06-27T11:11:38.989Z,230.22
2023-06-27T11:12:39.002Z,229.28
2023-06-27T11:13:38.944Z,231.79
2023-06-27T11:14:39.063Z,231.28
2023-06-27T11:15:38.960Z,234.29
2023-06-27T11:16:39.042Z,236.25
2023-06-27T11:17:38.958Z,239.34
2023-06-27T11:18:38.933Z,238.49
2023-06-27T11:19:39.565Z,235.95
2023-06-27T11:20:39.257Z,234.15
2023-06-27T11:21:38.947Z,240.63
2023-06-27T11:22:38.950Z,237.41
2023-06-27T11:23:38.971Z,242.14
2023-06-27T11:24:39.018Z,240.83
2023-06-27T11:25:39.025Z,241.31
2023-06-27T11:26:39.028Z,244.13
2023-06-27T11:27:39.565Z,242.08
2023-06-27T11:28:39.051Z,244.07
2023-06-27T11:29:39.051Z,244.67
2023-06-27T11:30:39.543Z,246.21
2023-06-27T11:31:39.129Z,245.48
2023-06-27T11:32:39.153Z,245.24
2023-06-27T11:33:39.064Z,247.29
2023-06-27T11:34:39.090Z,247.01
2023-06-27T11:35:39.183Z,246.28
2023-06-27T11:36:39.108Z,247.30
2023-06-27T11:37:39.137Z,248.24
2023-06-27T11:38:39.120Z,249.27
2023-06-27T11:39:39.110Z,247.75
2023-06-27T11:40:39.287Z,249.72
2023-06-27T11:41:39.087Z,248.79
2023-06-27T11:42:39.082Z,248.25
2023-06-27T11:43:39.101Z,248.48
2023-06-27T11:44:39.070Z,247.41
2023-06-27T11:45:39.162Z,249.80
2023-06-27T11:46:39.124Z,247.97
2023-06-27T11:47:39.150Z,249.31
2023-06-27T11:48:39.108Z,249.44
2023-06-27T11:49:39.103Z,247.90
2023-06-27T11:50:39.342Z,248.84
2023-06-27T11:51:39.116Z,247.83
2023-06-27T11:52:39.112Z,249.30
2023-06-27T11:53:39.148Z,248.63
2023-06-27T11:54:39.137Z,249.84
2023-06-27T11:55:39.133Z,249.55
2023-06-27T11:56:39.130Z,247.77
2023-06-27T11:57:39.079Z,247.60
2023-06-27T11:58:39.081Z,247.21
2023-06-27T11:59:39.094Z,247.17
2023-06-27T12:00:39.233Z,247.73
2023-06-27T12:01:39.221Z,247.48
2023-06-27T12:02:39.153Z,249.26
2023-06-27T12:03:39.138Z,247.72
2023-06-27T12:04:39.083Z,247.51
2023-06-27T12:05:39.082Z,247.90
2023-06-27T12:06:39.090Z,248.20
2023-06-27T12:07:39.114Z,246.72
2023-06-27T12:08:39.117Z,246.19
2023-06-27T12:09:39.528Z,248.60
2023-06-27T12:10:39.287Z,247.86
2023-06-27T12:11:39.159Z,248.57
2023-06-27T12:12:39.085Z,246.91
2023-06-27T12:13:39.089Z,248.03
2023-06-27T12:14:39.123Z,248.66
2023-06-27T12:15:39.104Z,246.79
2023-06-27T12:16:39.568Z,247.00
2023-06-27T12:17:39.198Z,247.24
2023-06-27T12:18:39.099Z,246.65
2023-06-27T12:19:39.139Z,246.22
2023-06-27T12:20:39.336Z,247.68
2023-06-27T12:21:39.165Z,248.08
2023-06-27T12:22:39.106Z,246.05
2023-06-27T12:23:39.173Z,246.51
2023-06-27T12:24:39.122Z,245.27
2023-06-27T12:25:39.082Z,247.21
2023-06-27T12:26:39.132Z,247.76
2023-06-27T12:27:39.178Z,247.03
2023-06-27T12:28:39.090Z,246.52
2023-06-27T12:29:39.120Z,246.47
2023-06-27T12:30:39.477Z,245.02
2023-06-27T12:31:39.249Z,246.01
2023-06-27T12:32:39.208Z,244.86
2023-06-27T12:33:39.131Z,245.98
2023-06-27T12:34:39.085Z,246.44
2023-06-27T12:35:39.143Z,245.80